sensor_id;sensor_type;location;lat;lon;timestamp;pressure;altitude;pressure_sealevel;temperature;humidity
80202;BME280;69521;54.454;9.928;2024-03-22T00:01:52;101667.94;;;7.28;93.73
80202;BME280;69521;54.454;9.928;2024-03-22T00:04:18;101657.31;;;7.27;93.83
80202;BME280;69521;54.454;9.928;2024-03-22T00:06:44;101651.13;;;7.26;94.65
80202;BME280;69521;54.454;9.928;2024-03-22T00:09:10;101645.88;;;7.25;94.06
80202;BME280;69521;54.454;9.928;2024-03-22T00:11:36;101638.78;;;7.24;94.05
80202;BME280;69521;54.454;9.928;2024-03-22T00:14:03;101637.19;;;7.21;93.88
80202;BME280;69521;54.454;9.928;2024-03-22T00:16:28;101639.75;;;7.23;93.57
80202;BME280;69521;54.454;9.928;2024-03-22T00:18:54;101632.03;;;7.18;93.79
80202;BME280;69521;54.454;9.928;2024-03-22T00:21:21;101627.06;;;7.12;94.51
80202;BME280;69521;54.454;9.928;2024-03-22T00:23:46;101616.38;;;7.12;94.85
80202;BME280;69521;54.454;9.928;2024-03-22T00:26:12;101596.47;;;7.16;94.95
80202;BME280;69521;54.454;9.928;2024-03-22T00:28:37;101595.31;;;7.20;94.58
80202;BME280;69521;54.454;9.928;2024-03-22T00:31:02;101590.41;;;7.27;94.00
80202;BME280;69521;54.454;9.928;2024-03-22T00:33:28;101585.81;;;7.29;94.58
80202;BME280;69521;54.454;9.928;2024-03-22T00:35:53;101584.88;;;7.30;94.01
80202;BME280;69521;54.454;9.928;2024-03-22T00:38:18;101575.03;;;7.30;93.66
80202;BME280;69521;54.454;9.928;2024-03-22T00:40:44;101563.16;;;7.34;93.95
80202;BME280;69521;54.454;9.928;2024-03-22T00:43:09;101558.00;;;7.31;94.26
80202;BME280;69521;54.454;9.928;2024-03-22T00:45:34;101549.00;;;7.32;94.10
80202;BME280;69521;54.454;9.928;2024-03-22T00:48:00;101550.53;;;7.37;94.16
80202;BME280;69521;54.454;9.928;2024-03-22T00:50:25;101543.25;;;7.39;93.83
80202;BME280;69521;54.454;9.928;2024-03-22T00:52:51;101543.91;;;7.42;93.85
80202;BME280;69521;54.454;9.928;2024-03-22T00:55:18;101541.31;;;7.41;93.85
80202;BME280;69521;54.454;9.928;2024-03-22T00:57:43;101555.66;;;7.40;93.79
80202;BME280;69521;54.454;9.928;2024-03-22T01:00:09;101543.16;;;7.40;93.78
80202;BME280;69521;54.454;9.928;2024-03-22T01:02:35;101550.22;;;7.41;94.46
80202;BME280;69521;54.454;9.928;2024-03-22T01:05:00;101546.69;;;7.41;93.71
80202;BME280;69521;54.454;9.928;2024-03-22T01:07:25;101533.09;;;7.44;93.69
80202;BME280;69521;54.454;9.928;2024-03-22T01:09:51;101528.50;;;7.46;93.54
80202;BME280;69521;54.454;9.928;2024-03-22T01:12:16;101521.84;;;7.39;94.24
80202;BME280;69521;54.454;9.928;2024-03-22T01:14:41;101519.91;;;7.41;93.49
80202;BME280;69521;54.454;9.928;2024-03-22T01:17:07;101513.69;;;7.40;93.54
80202;BME280;69521;54.454;9.928;2024-03-22T01:19:33;101513.59;;;7.42;94.02
80202;BME280;69521;54.454;9.928;2024-03-22T01:21:58;101517.78;;;7.46;93.06
80202;BME280;69521;54.454;9.928;2024-03-22T01:24:23;101513.19;;;7.48;93.82
80202;BME280;69521;54.454;9.928;2024-03-22T01:26:49;101504.28;;;7.47;93.86
80202;BME280;69521;54.454;9.928;2024-03-22T01:29:14;101507.81;;;7.48;93.06
80202;BME280;69521;54.454;9.928;2024-03-22T01:31:39;101499.78;;;7.48;93.45
80202;BME280;69521;54.454;9.928;2024-03-22T01:34:05;101503.97;;;7.52;93.22
80202;BME280;69521;54.454;9.928;2024-03-22T01:36:30;101497.13;;;7.48;92.82
80202;BME280;69521;54.454;9.928;2024-03-22T01:38:56;101486.97;;;7.53;93.01
80202;BME280;69521;54.454;9.928;2024-03-22T01:41:22;101482.78;;;7.61;92.84
80202;BME280;69521;54.454;9.928;2024-03-22T01:43:47;101482.25;;;7.56;92.77
80202;BME280;69521;54.454;9.928;2024-03-22T01:46:12;101463.50;;;7.56;92.57
80202;BME280;69521;54.454;9.928;2024-03-22T01:48:38;101462.44;;;7.59;93.17
80202;BME280;69521;54.454;9.928;2024-03-22T01:51:04;101470.25;;;7.62;93.26
80202;BME280;69521;54.454;9.928;2024-03-22T01:53:30;101455.16;;;7.61;93.33
80202;BME280;69521;54.454;9.928;2024-03-22T01:55:56;101446.16;;;7.62;93.50
80202;BME280;69521;54.454;9.928;2024-03-22T01:58:21;101449.16;;;7.57;93.66
80202;BME280;69521;54.454;9.928;2024-03-22T02:00:47;101455.38;;;7.58;93.72
80202;BME280;69521;54.454;9.928;2024-03-22T02:03:12;101460.72;;;7.58;93.52
80202;BME280;69521;54.454;9.928;2024-03-22T02:05:37;101466.94;;;7.58;93.94
80202;BME280;69521;54.454;9.928;2024-03-22T02:08:03;101463.19;;;7.61;93.98
80202;BME280;69521;54.454;9.928;2024-03-22T02:10:28;101467.25;;;7.66;93.75
80202;BME280;69521;54.454;9.928;2024-03-22T02:12:54;101468.34;;;7.77;93.91
80202;BME280;69521;54.454;9.928;2024-03-22T02:15:19;101447.22;;;7.72;93.15
80202;BME280;69521;54.454;9.928;2024-03-22T02:17:45;101442.63;;;7.74;92.96
80202;BME280;69521;54.454;9.928;2024-03-22T02:20:10;101440.81;;;7.75;93.70
80202;BME280;69521;54.454;9.928;2024-03-22T02:22:37;101441.75;;;7.74;93.18
80202;BME280;69521;54.454;9.928;2024-03-22T02:25:03;101436.09;;;7.78;93.09
80202;BME280;69521;54.454;9.928;2024-03-22T02:27:28;101438.97;;;7.75;93.80
80202;BME280;69521;54.454;9.928;2024-03-22T02:29:53;101431.69;;;7.77;93.89
80202;BME280;69521;54.454;9.928;2024-03-22T02:32:19;101428.84;;;7.80;93.03
80202;BME280;69521;54.454;9.928;2024-03-22T02:34:44;101422.59;;;7.80;93.13
80202;BME280;69521;54.454;9.928;2024-03-22T02:37:09;101435.03;;;7.81;93.19
80202;BME280;69521;54.454;9.928;2024-03-22T02:39:35;101425.09;;;7.83;93.17
80202;BME280;69521;54.454;9.928;2024-03-22T02:42:00;101422.28;;;7.84;93.71
80202;BME280;69521;54.454;9.928;2024-03-22T02:44:25;101404.50;;;7.83;93.18
80202;BME280;69521;54.454;9.928;2024-03-22T02:46:50;101406.34;;;7.83;93.13
80202;BME280;69521;54.454;9.928;2024-03-22T02:49:16;101404.06;;;7.89;93.45
80202;BME280;69521;54.454;9.928;2024-03-22T02:51:41;101414.78;;;7.89;93.52
80202;BME280;69521;54.454;9.928;2024-03-22T02:54:06;101403.97;;;7.91;93.08
80202;BME280;69521;54.454;9.928;2024-03-22T02:56:32;101402.13;;;7.91;93.66
80202;BME280;69521;54.454;9.928;2024-03-22T02:58:57;101401.91;;;7.94;93.37
80202;BME280;69521;54.454;9.928;2024-03-22T03:01:22;101399.47;;;7.91;93.56
80202;BME280;69521;54.454;9.928;2024-03-22T03:03:48;101387.78;;;7.92;93.55
80202;BME280;69521;54.454;9.928;2024-03-22T03:06:13;101377.81;;;7.94;93.45
80202;BME280;69521;54.454;9.928;2024-03-22T03:08:40;101379.75;;;7.92;94.04
80202;BME280;69521;54.454;9.928;2024-03-22T03:11:05;101372.97;;;7.99;93.50
80202;BME280;69521;54.454;9.928;2024-03-22T03:13:30;101363.22;;;7.98;93.79
80202;BME280;69521;54.454;9.928;2024-03-22T03:15:57;101356.50;;;7.93;94.21
80202;BME280;69521;54.454;9.928;2024-03-22T03:18:22;101360.22;;;8.03;93.85
80202;BME280;69521;54.454;9.928;2024-03-22T03:20:47;101350.47;;;8.02;93.77
80202;BME280;69521;54.454;9.928;2024-03-22T03:23:13;101351.84;;;8.08;94.36
80202;BME280;69521;54.454;9.928;2024-03-22T03:25:38;101338.09;;;8.12;93.91
80202;BME280;69521;54.454;9.928;2024-03-22T03:28:04;101340.56;;;8.15;93.46
80202;BME280;69521;54.454;9.928;2024-03-22T03:30:29;101340.44;;;8.17;93.60
80202;BME280;69521;54.454;9.928;2024-03-22T03:32:54;101336.56;;;8.21;93.65
80202;BME280;69521;54.454;9.928;2024-03-22T03:35:19;101337.75;;;8.17;93.66
80202;BME280;69521;54.454;9.928;2024-03-22T03:37:45;101322.94;;;8.24;93.41
80202;BME280;69521;54.454;9.928;2024-03-22T03:40:10;101318.44;;;8.24;93.93
80202;BME280;69521;54.454;9.928;2024-03-22T03:42:36;101312.63;;;8.30;93.55
80202;BME280;69521;54.454;9.928;2024-03-22T03:45:01;101310.69;;;8.32;93.57
80202;BME280;69521;54.454;9.928;2024-03-22T03:47:26;101305.31;;;8.32;93.65
80202;BME280;69521;54.454;9.928;2024-03-22T03:49:52;101297.19;;;8.34;93.75
80202;BME280;69521;54.454;9.928;2024-03-22T03:52:18;101301.34;;;8.38;93.19
80202;BME280;69521;54.454;9.928;2024-03-22T03:54:43;101304.91;;;8.39;93.47
80202;BME280;69521;54.454;9.928;2024-03-22T03:57:08;101295.88;;;8.40;93.53
80202;BME280;69521;54.454;9.928;2024-03-22T03:59:34;101301.13;;;8.41;93.68
80202;BME280;69521;54.454;9.928;2024-03-22T04:01:59;101290.13;;;8.33;94.79
80202;BME280;69521;54.454;9.928;2024-03-22T04:04:24;101291.59;;;8.37;94.06
80202;BME280;69521;54.454;9.928;2024-03-22T04:06:49;101285.16;;;8.40;94.31
80202;BME280;69521;54.454;9.928;2024-03-22T04:09:15;101293.09;;;8.41;94.38
80202;BME280;69521;54.454;9.928;2024-03-22T04:11:40;101286.47;;;8.34;94.80
80202;BME280;69521;54.454;9.928;2024-03-22T04:14:06;101278.19;;;8.37;95.48
80202;BME280;69521;54.454;9.928;2024-03-22T04:16:31;101286.75;;;8.42;95.21
80202;BME280;69521;54.454;9.928;2024-03-22T04:18:57;101278.50;;;8.32;96.42
80202;BME280;69521;54.454;9.928;2024-03-22T04:21:22;101272.31;;;8.32;96.87
80202;BME280;69521;54.454;9.928;2024-03-22T04:23:47;101274.66;;;8.13;99.35
80202;BME280;69521;54.454;9.928;2024-03-22T04:26:13;101259.09;;;8.18;98.86
80202;BME280;69521;54.454;9.928;2024-03-22T04:28:38;101258.28;;;8.05;100.00
80202;BME280;69521;54.454;9.928;2024-03-22T04:31:05;101255.03;;;8.12;100.00
80202;BME280;69521;54.454;9.928;2024-03-22T04:33:32;101256.75;;;8.13;100.00
80202;BME280;69521;54.454;9.928;2024-03-22T04:35:58;101252.47;;;8.11;100.00
80202;BME280;69521;54.454;9.928;2024-03-22T04:38:24;101243.47;;;8.12;100.00
80202;BME280;69521;54.454;9.928;2024-03-22T04:40:50;101240.72;;;8.01;100.00
80202;BME280;69521;54.454;9.928;2024-03-22T04:43:16;101227.16;;;8.15;100.00
80202;BME280;69521;54.454;9.928;2024-03-22T04:45:46;101237.03;;;8.14;100.00
80202;BME280;69521;54.454;9.928;2024-03-22T04:48:17;101229.88;;;8.26;100.00
80202;BME280;69521;54.454;9.928;2024-03-22T04:50:42;101226.56;;;8.22;100.00
80202;BME280;69521;54.454;9.928;2024-03-22T04:53:07;101223.78;;;8.24;100.00
80202;BME280;69521;54.454;9.928;2024-03-22T04:55:33;101231.19;;;8.20;100.00
80202;BME280;69521;54.454;9.928;2024-03-22T04:57:58;101227.31;;;8.24;100.00
80202;BME280;69521;54.454;9.928;2024-03-22T05:00:24;101226.47;;;8.24;100.00
80202;BME280;69521;54.454;9.928;2024-03-22T05:02:53;101221.09;;;8.24;100.00
80202;BME280;69521;54.454;9.928;2024-03-22T05:05:18;101218.66;;;8.21;100.00
80202;BME280;69521;54.454;9.928;2024-03-22T05:07:44;101211.13;;;8.26;100.00
80202;BME280;69521;54.454;9.928;2024-03-22T05:10:10;101210.56;;;8.34;100.00
80202;BME280;69521;54.454;9.928;2024-03-22T05:12:36;101205.63;;;8.27;100.00
80202;BME280;69521;54.454;9.928;2024-03-22T05:15:04;101205.41;;;8.30;100.00
80202;BME280;69521;54.454;9.928;2024-03-22T05:17:29;101213.13;;;8.35;100.00
80202;BME280;69521;54.454;9.928;2024-03-22T05:19:59;101207.13;;;8.31;100.00
80202;BME280;69521;54.454;9.928;2024-03-22T05:22:25;101200.75;;;8.21;100.00
80202;BME280;69521;54.454;9.928;2024-03-22T05:24:51;101207.19;;;8.19;100.00
80202;BME280;69521;54.454;9.928;2024-03-22T05:27:17;101205.47;;;8.18;100.00
80202;BME280;69521;54.454;9.928;2024-03-22T05:29:43;101205.25;;;8.21;100.00
80202;BME280;69521;54.454;9.928;2024-03-22T05:32:08;101201.84;;;8.19;100.00
80202;BME280;69521;54.454;9.928;2024-03-22T05:34:33;101202.81;;;8.18;100.00
80202;BME280;69521;54.454;9.928;2024-03-22T05:37:00;101197.34;;;8.19;100.00
80202;BME280;69521;54.454;9.928;2024-03-22T05:39:26;101188.19;;;8.22;100.00
80202;BME280;69521;54.454;9.928;2024-03-22T05:41:51;101197.22;;;8.21;100.00
80202;BME280;69521;54.454;9.928;2024-03-22T05:44:16;101192.72;;;8.21;100.00
80202;BME280;69521;54.454;9.928;2024-03-22T05:46:42;101200.63;;;8.23;100.00
80202;BME280;69521;54.454;9.928;2024-03-22T05:49:07;101203.81;;;8.28;100.00
80202;BME280;69521;54.454;9.928;2024-03-22T05:51:33;101198.31;;;8.18;100.00
80202;BME280;69521;54.454;9.928;2024-03-22T05:53:58;101194.06;;;8.27;100.00
80202;BME280;69521;54.454;9.928;2024-03-22T05:56:24;101188.94;;;8.24;100.00
80202;BME280;69521;54.454;9.928;2024-03-22T05:58:49;101184.63;;;8.34;100.00
80202;BME280;69521;54.454;9.928;2024-03-22T06:01:14;101177.13;;;8.26;100.00
80202;BME280;69521;54.454;9.928;2024-03-22T06:03:40;101179.69;;;8.28;100.00
80202;BME280;69521;54.454;9.928;2024-03-22T06:06:05;101176.56;;;8.34;100.00
80202;BME280;69521;54.454;9.928;2024-03-22T06:08:31;101176.03;;;8.29;100.00
80202;BME280;69521;54.454;9.928;2024-03-22T06:11:00;101165.50;;;8.39;100.00
80202;BME280;69521;54.454;9.928;2024-03-22T06:13:26;101162.94;;;8.37;100.00
80202;BME280;69521;54.454;9.928;2024-03-22T06:15:51;101165.38;;;8.40;100.00
80202;BME280;69521;54.454;9.928;2024-03-22T06:18:17;101151.97;;;8.40;100.00
80202;BME280;69521;54.454;9.928;2024-03-22T06:20:42;101148.69;;;8.37;100.00
80202;BME280;69521;54.454;9.928;2024-03-22T06:23:08;101141.50;;;8.37;100.00
80202;BME280;69521;54.454;9.928;2024-03-22T06:25:34;101133.94;;;8.42;100.00
80202;BME280;69521;54.454;9.928;2024-03-22T06:27:59;101132.34;;;8.40;100.00
80202;BME280;69521;54.454;9.928;2024-03-22T06:30:25;101139.44;;;8.41;100.00
80202;BME280;69521;54.454;9.928;2024-03-22T06:32:50;101141.88;;;8.44;100.00
80202;BME280;69521;54.454;9.928;2024-03-22T06:35:16;101133.94;;;8.42;100.00
80202;BME280;69521;54.454;9.928;2024-03-22T06:37:41;101126.41;;;8.47;100.00
80202;BME280;69521;54.454;9.928;2024-03-22T06:40:10;101124.06;;;8.43;100.00
80202;BME280;69521;54.454;9.928;2024-03-22T06:42:35;101118.72;;;8.43;100.00
80202;BME280;69521;54.454;9.928;2024-03-22T06:45:02;101124.06;;;8.43;100.00
80202;BME280;69521;54.454;9.928;2024-03-22T06:47:27;101123.09;;;8.44;100.00
80202;BME280;69521;54.454;9.928;2024-03-22T06:49:53;101113.84;;;8.37;100.00
80202;BME280;69521;54.454;9.928;2024-03-22T06:52:18;101118.84;;;8.41;100.00
80202;BME280;69521;54.454;9.928;2024-03-22T06:54:44;101123.22;;;8.42;100.00
80202;BME280;69521;54.454;9.928;2024-03-22T06:57:09;101109.81;;;8.42;100.00
80202;BME280;69521;54.454;9.928;2024-03-22T06:59:35;101110.19;;;8.38;100.00
80202;BME280;69521;54.454;9.928;2024-03-22T07:02:00;101115.38;;;8.28;100.00
80202;BME280;69521;54.454;9.928;2024-03-22T07:04:25;101120.28;;;8.34;100.00
80202;BME280;69521;54.454;9.928;2024-03-22T07:06:51;101112.44;;;8.31;100.00
80202;BME280;69521;54.454;9.928;2024-03-22T07:09:16;101106.97;;;8.32;100.00
80202;BME280;69521;54.454;9.928;2024-03-22T07:11:41;101114.06;;;8.34;100.00
80202;BME280;69521;54.454;9.928;2024-03-22T07:14:07;101117.50;;;8.36;100.00
80202;BME280;69521;54.454;9.928;2024-03-22T07:16:32;101122.59;;;8.39;100.00
80202;BME280;69521;54.454;9.928;2024-03-22T07:18:58;101121.88;;;8.37;100.00
80202;BME280;69521;54.454;9.928;2024-03-22T07:21:23;101116.63;;;8.35;100.00
80202;BME280;69521;54.454;9.928;2024-03-22T07:23:48;101117.69;;;8.32;100.00
80202;BME280;69521;54.454;9.928;2024-03-22T07:26:14;101117.69;;;8.32;100.00
80202;BME280;69521;54.454;9.928;2024-03-22T07:28:39;101113.31;;;8.31;100.00
80202;BME280;69521;54.454;9.928;2024-03-22T07:31:04;101112.13;;;8.47;100.00
80202;BME280;69521;54.454;9.928;2024-03-22T07:33:31;101105.94;;;8.46;100.00
80202;BME280;69521;54.454;9.928;2024-03-22T07:36:00;101098.50;;;8.50;100.00
80202;BME280;69521;54.454;9.928;2024-03-22T07:38:26;101093.13;;;8.50;100.00
80202;BME280;69521;54.454;9.928;2024-03-22T07:40:51;101107.03;;;8.55;100.00
80202;BME280;69521;54.454;9.928;2024-03-22T07:43:16;101115.69;;;8.47;100.00
80202;BME280;69521;54.454;9.928;2024-03-22T07:45:42;101108.59;;;8.46;100.00
80202;BME280;69521;54.454;9.928;2024-03-22T07:48:07;101113.22;;;8.44;100.00
80202;BME280;69521;54.454;9.928;2024-03-22T07:50:32;101126.88;;;8.52;100.00
80202;BME280;69521;54.454;9.928;2024-03-22T07:52:58;101116.03;;;8.54;100.00
80202;BME280;69521;54.454;9.928;2024-03-22T07:55:23;101111.03;;;8.49;100.00
80202;BME280;69521;54.454;9.928;2024-03-22T07:57:48;101117.88;;;8.53;100.00
80202;BME280;69521;54.454;9.928;2024-03-22T08:00:14;101112.03;;;8.48;100.00
80202;BME280;69521;54.454;9.928;2024-03-22T08:02:40;101107.16;;;8.53;100.00
80202;BME280;69521;54.454;9.928;2024-03-22T08:05:06;101108.38;;;8.60;100.00
80202;BME280;69521;54.454;9.928;2024-03-22T08:07:32;101109.50;;;8.69;100.00
80202;BME280;69521;54.454;9.928;2024-03-22T08:09:57;101111.44;;;8.67;100.00
80202;BME280;69521;54.454;9.928;2024-03-22T08:12:24;101102.53;;;8.67;100.00
80202;BME280;69521;54.454;9.928;2024-03-22T08:14:49;101101.91;;;8.63;100.00
80202;BME280;69521;54.454;9.928;2024-03-22T08:17:15;101103.78;;;8.74;100.00
80202;BME280;69521;54.454;9.928;2024-03-22T08:19:41;101097.69;;;8.72;100.00
80202;BME280;69521;54.454;9.928;2024-03-22T08:22:06;101099.50;;;8.71;100.00
80202;BME280;69521;54.454;9.928;2024-03-22T08:24:31;101095.84;;;8.72;100.00
80202;BME280;69521;54.454;9.928;2024-03-22T08:26:57;101089.88;;;8.69;100.00
80202;BME280;69521;54.454;9.928;2024-03-22T08:29:22;101078.41;;;8.78;100.00
80202;BME280;69521;54.454;9.928;2024-03-22T08:31:47;101072.94;;;8.79;100.00
80202;BME280;69521;54.454;9.928;2024-03-22T08:34:12;101064.03;;;8.79;100.00
80202;BME280;69521;54.454;9.928;2024-03-22T08:36:38;101062.06;;;8.81;100.00
80202;BME280;69521;54.454;9.928;2024-03-22T08:39:04;101058.53;;;8.91;100.00
80202;BME280;69521;54.454;9.928;2024-03-22T08:41:30;101058.03;;;8.86;100.00
80202;BME280;69521;54.454;9.928;2024-03-22T08:43:56;101064.25;;;8.98;100.00
80202;BME280;69521;54.454;9.928;2024-03-22T08:46:22;101046.19;;;9.00;100.00
80202;BME280;69521;54.454;9.928;2024-03-22T08:48:50;101048.88;;;9.00;100.00
80202;BME280;69521;54.454;9.928;2024-03-22T08:51:15;101049.59;;;9.02;100.00
80202;BME280;69521;54.454;9.928;2024-03-22T08:53:40;101050.56;;;9.01;100.00
80202;BME280;69521;54.454;9.928;2024-03-22T08:56:06;101046.69;;;8.94;100.00
80202;BME280;69521;54.454;9.928;2024-03-22T08:58:31;101044.50;;;8.88;100.00
80202;BME280;69521;54.454;9.928;2024-03-22T09:00:56;101037.19;;;8.90;100.00
80202;BME280;69521;54.454;9.928;2024-03-22T09:03:21;101028.72;;;9.06;100.00
80202;BME280;69521;54.454;9.928;2024-03-22T09:05:47;101027.00;;;9.16;100.00
80202;BME280;69521;54.454;9.928;2024-03-22T09:08:12;101028.59;;;9.07;100.00
80202;BME280;69521;54.454;9.928;2024-03-22T09:10:38;101034.97;;;8.95;100.00
80202;BME280;69521;54.454;9.928;2024-03-22T09:13:03;101028.47;;;9.09;100.00
80202;BME280;69521;54.454;9.928;2024-03-22T09:15:28;101024.81;;;9.10;100.00
80202;BME280;69521;54.454;9.928;2024-03-22T09:17:54;101033.25;;;9.05;100.00
80202;BME280;69521;54.454;9.928;2024-03-22T09:20:19;101029.09;;;9.01;100.00
80202;BME280;69521;54.454;9.928;2024-03-22T09:22:45;101017.53;;;9.01;100.00
80202;BME280;69521;54.454;9.928;2024-03-22T09:25:10;101028.03;;;8.92;100.00
80202;BME280;69521;54.454;9.928;2024-03-22T09:27:36;101036.22;;;8.80;100.00
80202;BME280;69521;54.454;9.928;2024-03-22T09:30:01;101027.31;;;8.79;100.00
80202;BME280;69521;54.454;9.928;2024-03-22T09:32:29;101025.50;;;8.69;100.00
80202;BME280;69521;54.454;9.928;2024-03-22T09:34:54;101020.22;;;8.89;100.00
80202;BME280;69521;54.454;9.928;2024-03-22T09:37:19;101017.88;;;9.07;100.00
80202;BME280;69521;54.454;9.928;2024-03-22T09:39:45;101029.47;;;9.08;100.00
80202;BME280;69521;54.454;9.928;2024-03-22T09:42:13;101028.03;;;8.92;100.00
80202;BME280;69521;54.454;9.928;2024-03-22T09:44:46;101026.19;;;8.93;100.00
80202;BME280;69521;54.454;9.928;2024-03-22T09:47:14;101022.06;;;8.89;100.00
80202;BME280;69521;54.454;9.928;2024-03-22T09:49:40;101018.66;;;8.87;100.00
80202;BME280;69521;54.454;9.928;2024-03-22T09:52:06;101024.25;;;8.95;100.00
80202;BME280;69521;54.454;9.928;2024-03-22T09:54:32;101020.31;;;9.10;100.00
80202;BME280;69521;54.454;9.928;2024-03-22T09:56:59;101006.25;;;9.18;100.00
80202;BME280;69521;54.454;9.928;2024-03-22T09:59:25;101004.94;;;9.12;100.00
80202;BME280;69521;54.454;9.928;2024-03-22T10:01:52;101010.28;;;9.12;100.00
80202;BME280;69521;54.454;9.928;2024-03-22T10:04:18;101006.84;;;9.21;100.00
80202;BME280;69521;54.454;9.928;2024-03-22T10:06:46;100998.56;;;9.13;100.00
80202;BME280;69521;54.454;9.928;2024-03-22T10:09:11;101005.78;;;9.13;100.00
80202;BME280;69521;54.454;9.928;2024-03-22T10:11:37;101003.69;;;9.16;100.00
80202;BME280;69521;54.454;9.928;2024-03-22T10:14:02;100997.59;;;9.14;100.00
80202;BME280;69521;54.454;9.928;2024-03-22T10:16:33;100991.22;;;9.26;100.00
80202;BME280;69521;54.454;9.928;2024-03-22T10:18:59;101002.88;;;9.37;100.00
80202;BME280;69521;54.454;9.928;2024-03-22T10:21:24;101009.00;;;9.27;100.00
80202;BME280;69521;54.454;9.928;2024-03-22T10:23:50;101008.47;;;9.13;100.00
80202;BME280;69521;54.454;9.928;2024-03-22T10:26:17;101000.06;;;9.06;100.00
80202;BME280;69521;54.454;9.928;2024-03-22T10:28:46;100987.13;;;9.11;100.00
80202;BME280;69521;54.454;9.928;2024-03-22T10:31:12;100987.25;;;9.10;100.00
80202;BME280;69521;54.454;9.928;2024-03-22T10:33:38;100995.03;;;9.13;100.00
80202;BME280;69521;54.454;9.928;2024-03-22T10:36:04;100996.97;;;9.22;100.00
80202;BME280;69521;54.454;9.928;2024-03-22T10:38:30;100991.03;;;9.07;100.00
80202;BME280;69521;54.454;9.928;2024-03-22T10:40:57;100999.97;;;8.97;100.00
80202;BME280;69521;54.454;9.928;2024-03-22T10:43:22;100991.56;;;8.90;100.00
80202;BME280;69521;54.454;9.928;2024-03-22T10:45:49;100991.31;;;8.93;100.00
80202;BME280;69521;54.454;9.928;2024-03-22T10:48:17;100990.22;;;8.96;100.00
80202;BME280;69521;54.454;9.928;2024-03-22T10:50:43;100999.38;;;8.93;100.00
80202;BME280;69521;54.454;9.928;2024-03-22T10:53:23;100996.31;;;8.98;100.00
80202;BME280;69521;54.454;9.928;2024-03-22T10:55:50;100995.84;;;8.92;100.00
80202;BME280;69521;54.454;9.928;2024-03-22T10:58:25;100988.91;;;8.90;100.00
80202;BME280;69521;54.454;9.928;2024-03-22T11:00:54;100995.75;;;8.83;100.00
80202;BME280;69521;54.454;9.928;2024-03-22T11:03:22;100990.28;;;8.73;100.00
80202;BME280;69521;54.454;9.928;2024-03-22T11:05:54;100976.25;;;8.70;100.00
80202;BME280;69521;54.454;9.928;2024-03-22T11:08:27;100988.91;;;8.90;100.00
80202;BME280;69521;54.454;9.928;2024-03-22T11:10:56;100979.69;;;9.04;100.00
80202;BME280;69521;54.454;9.928;2024-03-22T11:13:23;100977.06;;;9.24;100.00
80202;BME280;69521;54.454;9.928;2024-03-22T11:15:51;100977.31;;;9.21;100.00
80202;BME280;69521;54.454;9.928;2024-03-22T11:18:17;100972.59;;;9.14;100.00
80202;BME280;69521;54.454;9.928;2024-03-22T11:20:43;100979.69;;;9.04;100.00
80202;BME280;69521;54.454;9.928;2024-03-22T11:23:10;100988.00;;;9.01;100.00
80202;BME280;69521;54.454;9.928;2024-03-22T11:25:35;100989.00;;;9.00;100.00
80202;BME280;69521;54.454;9.928;2024-03-22T11:28:01;100973.53;;;8.92;100.00
80202;BME280;69521;54.454;9.928;2024-03-22T11:30:31;100977.81;;;8.83;100.00
80202;BME280;69521;54.454;9.928;2024-03-22T11:32:56;100971.59;;;8.83;100.00
80202;BME280;69521;54.454;9.928;2024-03-22T11:35:22;100958.28;;;8.92;100.00
80202;BME280;69521;54.454;9.928;2024-03-22T11:37:50;100968.28;;;9.22;100.00
80202;BME280;69521;54.454;9.928;2024-03-22T11:40:16;100973.56;;;9.13;100.00
80202;BME280;69521;54.454;9.928;2024-03-22T11:42:45;100973.22;;;9.06;100.00
80202;BME280;69521;54.454;9.928;2024-03-22T11:45:13;100969.63;;;8.85;100.00
80202;BME280;69521;54.454;9.928;2024-03-22T11:47:39;100977.47;;;8.77;100.00
80202;BME280;69521;54.454;9.928;2024-03-22T11:50:05;100978.69;;;8.73;100.00
80202;BME280;69521;54.454;9.928;2024-03-22T11:52:30;100970.91;;;8.70;100.00
80202;BME280;69521;54.454;9.928;2024-03-22T11:54:56;100965.28;;;8.73;100.00
80202;BME280;69521;54.454;9.928;2024-03-22T11:57:22;100970.91;;;8.70;100.00
80202;BME280;69521;54.454;9.928;2024-03-22T11:59:48;100961.88;;;8.71;100.00
80202;BME280;69521;54.454;9.928;2024-03-22T12:02:13;100961.13;;;8.80;100.00
80202;BME280;69521;54.454;9.928;2024-03-22T12:04:45;100958.41;;;8.91;100.00
80202;BME280;69521;54.454;9.928;2024-03-22T12:07:11;100963.25;;;9.29;100.00
80202;BME280;69521;54.454;9.928;2024-03-22T12:09:37;100943.53;;;9.19;100.00
80202;BME280;69521;54.454;9.928;2024-03-22T12:12:04;100944.78;;;9.15;100.00
80202;BME280;69521;54.454;9.928;2024-03-22T12:14:29;100949.84;;;8.97;100.00
80202;BME280;69521;54.454;9.928;2024-03-22T12:16:54;100952.09;;;9.13;100.00
80202;BME280;69521;54.454;9.928;2024-03-22T12:19:20;100956.34;;;9.15;100.00
80202;BME280;69521;54.454;9.928;2024-03-22T12:21:45;100956.31;;;9.26;99.49
80202;BME280;69521;54.454;9.928;2024-03-22T12:24:10;100949.88;;;9.18;99.76
80202;BME280;69521;54.454;9.928;2024-03-22T12:26:35;100956.69;;;9.22;99.26
80202;BME280;69521;54.454;9.928;2024-03-22T12:29:01;100954.44;;;9.06;98.65
80202;BME280;69521;54.454;9.928;2024-03-22T12:31:26;100956.97;;;9.19;99.82
80202;BME280;69521;54.454;9.928;2024-03-22T12:33:51;100955.03;;;9.10;97.91
80202;BME280;69521;54.454;9.928;2024-03-22T12:36:17;100947.16;;;9.29;98.97
80202;BME280;69521;54.454;9.928;2024-03-22T12:38:42;100948.53;;;9.23;98.26
80202;BME280;69521;54.454;9.928;2024-03-22T12:41:07;100946.56;;;9.25;98.40
80202;BME280;69521;54.454;9.928;2024-03-22T12:43:33;100953.28;;;9.20;98.10
80202;BME280;69521;54.454;9.928;2024-03-22T12:45:58;100960.16;;;9.13;96.56
80202;BME280;69521;54.454;9.928;2024-03-22T12:48:23;100953.56;;;9.17;95.64